ADDS METAR Data INFO
IDs: Format: Raw Decoded Include TAF

Data at: 1226 UTC 22 Feb 2018

KPAH 221153Z 36009KT 4SM BR OVC006 06/04 A3031 RMK AO2 RAE42 SLP266 P0003 60029 70119 T00560044 10061 20044 51033 $
KPAH 221151Z 01010KT 4SM BR OVC006 06/04 A3031 RMK AO2 RAE42 P0003 $
KPAH 221053Z AUTO 32009KT 5SM -RA BR 06/04 A3030 RMK AO2 RAB37 SLP262 P0002 T00560044 $
KPAH 220953Z AUTO 08010KT 10SM 06/04 A3021 RMK AO2 RAE07 SLP233 P0000 T00560044 $
KPAH 220853Z AUTO 09012G18KT 7SM -RA 05/03 A3022 RMK AO2 PRESFR SLP234 P0003 60024 T00500033 58041 $
KPAH 220753Z AUTO 03008KT 8SM -RA 04/03 A3029 RMK AO2 SLP260 P0003 T00440033 $
KPAH 220653Z AUTO 06009KT 5SM RA BR 04/03 A3031 RMK AO2 SLP265 P0018 T00440033 $
KPAH 220553Z AUTO 05011KT 4SM RA BR 04/03 A3034 RMK AO2 SLP275 P0009 60045 T00440028 10044 20039 402280033 58011 $
KPAH 220505Z 02012KT 6SM -RA BR 04/03 A3034 RMK AO2 P0002 T00440028 $
KPAH 220453Z 02012KT 5SM RA BR OVC007 04/03 A3035 RMK AO2 SLP279 P0014 T00440033 $
KPAH 220353Z 02011KT 4SM RA BR OVC007 04/03 A3038 RMK AO2 SLP288 P0009 T00440028 $
KPAH 220025Z 06009KT 9SM -RA OVC010 04/02 A3039 RMK AO2 P0001 T00390022 $
KPAH 220021Z 05008KT 9SM -RA OVC005 04/02 A3039 RMK AO2 P0001 T00390022 $
KPAH 220000Z 06009KT 8SM -RA 04/02 A3040 RMK AO2 P0000 T00390022 $
KPAH 212353Z 07010KT 7SM -RA OVC005 04/02 A3040 RMK AO2 PRESFR SLP295 P0007 60029 T00390022 10056 20039 58010 $
KPAH 212253Z 02009KT 5SM -RA BR OVC006 04/02 A3044 RMK AO2 SLP311 P0006 T00390022 $
KPAH 212229Z 02008KT 6SM -RA BR OVC006 04/02 A3044 RMK AO2 P0005 T00390022 $
KPAH 212153Z 01010KT 9SM -RA OVC008 04/02 A3045 RMK AO2 PRESRR SLP312 P0004 T00440022 $
KPAH 212053Z 36011KT 6SM -RA BR OVC008 05/03 A3043 RMK AO2 SLP305 P0004 60012 T00500033 53003 $
KPAH 211953Z 02010KT 8SM -RA OVC008 05/03 A3039 RMK AO2 SLP293 P0004 T00500033 $
KPAH 211853Z 04010KT 9SM -RA OVC009 05/03 A3039 RMK AO2 PRESFR SLP292 P0004 T00500033 $
KPAH 211753Z 03008KT 9SM -RA OVC009 05/03 A3042 RMK AO2 SLP300 P0003 60016 T00500033 10050 20033 58009 $
KPAH 211653Z 03010KT 10SM -RA OVC009 04/03 A3043 RMK AO2 SLP302 P0002 T00440028 $
KPAH 211553Z 36010KT 10SM -RA OVC009 04/02 A3045 RMK AO2 RAB1458 SLP309 P0002 T00390017 $
KPAH 211453Z 02011KT 10SM OVC009 03/02 A3045 RMK AO2 RAE51 PRESRR SLP309 P0003 60009 T00330017 51051 $
KPAH 211353Z 01010KT 10SM -RA OVC009 03/02 A3041 RMK AO2 PRESRR SLP297 P0004 T00330017 $
KPAH 211253Z 36012G20KT 10SM -RA BKN008 OVC013 04/02 A3034 RMK AO2 SLP275 P0002 T00390017 $
KPAH 210753Z AUTO 02009KT 10SM -RA 09/08 A3014 RMK AO2 SLP205 P0017 T00890078 $
KPAH 210712Z AUTO 36014G19KT 5SM RA BR 11/09 A3016 RMK AO2 P0011 T01060089 $
KPAH 210653Z AUTO 32014G24KT 2 1/2SM +RA BR 12/10 A3016 RMK AO2 PK WND 36030/0635 WSHFT 0624 RAB40 SLP209 P0010 T01220100 $
KPAH 210644Z AUTO 33013G30KT 10SM -RA 14/11 A3014 RMK AO2 PK WND 36030/0635 WSHFT 0624 LTG DSNT N AND NW RAB40 P0000 T01440111 $
KPAH 210553Z AUTO 18013G27KT 10SM 23/16 A3004 RMK AO2 PK WND 18028/0527 LTG DSNT W AND NW SLP167 T02280156 10233 20217 402500194 53003 $